sensor_id;sensor_type;location;lat;lon;timestamp;pressure;altitude;pressure_sealevel;temperature
67515;BMP280;60646;55.802;37.032;2023-07-29T00:01:52;98769.78;;;21.67
67515;BMP280;60646;55.802;37.032;2023-07-29T00:04:19;98771.19;;;21.68
67515;BMP280;60646;55.802;37.032;2023-07-29T00:06:46;98768.34;;;21.66
67515;BMP280;60646;55.802;37.032;2023-07-29T00:09:11;98784.94;;;21.70
67515;BMP280;60646;55.802;37.032;2023-07-29T00:11:38;98806.22;;;21.73
67515;BMP280;60646;55.802;37.032;2023-07-29T00:14:04;98800.38;;;21.67
67515;BMP280;60646;55.802;37.032;2023-07-29T00:16:29;98808.78;;;21.71
67515;BMP280;60646;55.802;37.032;2023-07-29T00:18:55;98806.22;;;21.73
67515;BMP280;60646;55.802;37.032;2023-07-29T00:21:21;98801.75;;;21.78
67515;BMP280;60646;55.802;37.032;2023-07-29T00:23:47;98790.63;;;21.74
67515;BMP280;60646;55.802;37.032;2023-07-29T00:26:13;98787.75;;;21.72
67515;BMP280;60646;55.802;37.032;2023-07-29T00:28:39;98778.06;;;21.69
67515;BMP280;60646;55.802;37.032;2023-07-29T00:31:04;98774.16;;;21.72
67515;BMP280;60646;55.802;37.032;2023-07-29T00:33:33;98770.81;;;21.83
67515;BMP280;60646;55.802;37.032;2023-07-29T00:35:58;98766.25;;;21.76
67515;BMP280;60646;55.802;37.032;2023-07-29T00:38:27;98773.00;;;21.75
67515;BMP280;60646;55.802;37.032;2023-07-29T00:40:54;98774.06;;;21.70
67515;BMP280;60646;55.802;37.032;2023-07-29T00:43:21;98779.75;;;21.74
67515;BMP280;60646;55.802;37.032;2023-07-29T00:45:47;98767.66;;;21.65
67515;BMP280;60646;55.802;37.032;2023-07-29T00:48:14;98780.47;;;21.74
67515;BMP280;60646;55.802;37.032;2023-07-29T00:50:40;98777.03;;;21.74
67515;BMP280;60646;55.802;37.032;2023-07-29T00:53:06;98776.44;;;21.75
67515;BMP280;60646;55.802;37.032;2023-07-29T00:55:32;98777.03;;;21.74
67515;BMP280;60646;55.802;37.032;2023-07-29T00:57:57;98777.16;;;21.76
67515;BMP280;60646;55.802;37.032;2023-07-29T01:00:25;98789.00;;;21.80
67515;BMP280;60646;55.802;37.032;2023-07-29T01:02:52;98763.75;;;21.68
67515;BMP280;60646;55.802;37.032;2023-07-29T01:05:20;98776.00;;;21.79
67515;BMP280;60646;55.802;37.032;2023-07-29T01:10:38;98744.91;;;21.82
67515;BMP280;60646;55.802;37.032;2023-07-29T01:13:20;98731.78;;;21.78
67515;BMP280;60646;55.802;37.032;2023-07-29T01:16:17;98734.81;;;21.73
67515;BMP280;60646;55.802;37.032;2023-07-29T01:18:40;98732.41;;;21.67
67515;BMP280;60646;55.802;37.032;2023-07-29T01:21:09;98724.59;;;21.62
67515;BMP280;60646;55.802;37.032;2023-07-29T01:23:37;98727.91;;;21.60
67515;BMP280;60646;55.802;37.032;2023-07-29T01:26:04;98717.75;;;21.61
67515;BMP280;60646;55.802;37.032;2023-07-29T01:28:30;98722.47;;;21.60
67515;BMP280;60646;55.802;37.032;2023-07-29T01:31:10;98726.03;;;21.63
67515;BMP280;60646;55.802;37.032;2023-07-29T01:33:58;98734.06;;;21.61
67515;BMP280;60646;55.802;37.032;2023-07-29T01:36:28;98726.06;;;21.42
67515;BMP280;60646;55.802;37.032;2023-07-29T01:38:54;98732.06;;;21.40
67515;BMP280;60646;55.802;37.032;2023-07-29T01:41:22;98732.66;;;21.39
67515;BMP280;60646;55.802;37.032;2023-07-29T01:43:49;98730.97;;;21.34
67515;BMP280;60646;55.802;37.032;2023-07-29T01:46:16;98735.13;;;21.35
67515;BMP280;60646;55.802;37.032;2023-07-29T01:48:42;98727.97;;;21.30
67515;BMP280;60646;55.802;37.032;2023-07-29T01:51:11;98740.41;;;21.33
67515;BMP280;60646;55.802;37.032;2023-07-29T01:53:37;98743.59;;;21.29
67515;BMP280;60646;55.802;37.032;2023-07-29T01:56:03;98733.16;;;21.26
67515;BMP280;60646;55.802;37.032;2023-07-29T01:58:29;98738.34;;;21.22
67515;BMP280;60646;55.802;37.032;2023-07-29T02:00:55;98739.91;;;21.25
67515;BMP280;60646;55.802;37.032;2023-07-29T02:03:21;98735.75;;;21.24
67515;BMP280;60646;55.802;37.032;2023-07-29T02:05:47;98737.78;;;21.23
67515;BMP280;60646;55.802;37.032;2023-07-29T02:08:13;98737.19;;;21.25
67515;BMP280;60646;55.802;37.032;2023-07-29T02:10:39;98735.75;;;21.24
67515;BMP280;60646;55.802;37.032;2023-07-29T02:13:05;98739.78;;;21.23
67515;BMP280;60646;55.802;37.032;2023-07-29T02:15:31;98738.34;;;21.22
67515;BMP280;60646;55.802;37.032;2023-07-29T02:17:58;98745.47;;;21.27
67515;BMP280;60646;55.802;37.032;2023-07-29T02:20:25;98745.34;;;21.25
67515;BMP280;60646;55.802;37.032;2023-07-29T02:22:51;98746.75;;;21.26
67515;BMP280;60646;55.802;37.032;2023-07-29T02:25:17;98751.63;;;21.27
67515;BMP280;60646;55.802;37.032;2023-07-29T02:27:45;98753.91;;;21.21
67515;BMP280;60646;55.802;37.032;2023-07-29T02:30:11;98750.75;;;21.25
67515;BMP280;60646;55.802;37.032;2023-07-29T02:32:38;98754.63;;;21.22
67515;BMP280;60646;55.802;37.032;2023-07-29T02:35:05;98763.63;;;21.24
67515;BMP280;60646;55.802;37.032;2023-07-29T02:37:31;98767.75;;;21.25
67515;BMP280;60646;55.802;37.032;2023-07-29T02:39:56;98765.75;;;21.26
67515;BMP280;60646;55.802;37.032;2023-07-29T02:42:22;98760.06;;;21.22
67515;BMP280;60646;55.802;37.032;2023-07-29T02:44:48;98766.47;;;21.26
67515;BMP280;60646;55.802;37.032;2023-07-29T02:47:14;98770.03;;;21.29
67515;BMP280;60646;55.802;37.032;2023-07-29T02:49:39;98765.03;;;21.25
67515;BMP280;60646;55.802;37.032;2023-07-29T02:52:05;98765.63;;;21.24
67515;BMP280;60646;55.802;37.032;2023-07-29T02:54:31;98776.25;;;21.41
67515;BMP280;60646;55.802;37.032;2023-07-29T02:56:57;98762.16;;;21.33
67515;BMP280;60646;55.802;37.032;2023-07-29T02:59:23;98762.28;;;21.35
67515;BMP280;60646;55.802;37.032;2023-07-29T03:01:49;98765.53;;;21.43
67515;BMP280;60646;55.802;37.032;2023-07-29T03:04:15;98739.41;;;21.38
67515;BMP280;60646;55.802;37.032;2023-07-29T03:06:41;98733.97;;;21.38
67515;BMP280;60646;55.802;37.032;2023-07-29T03:09:08;98739.91;;;21.46
67515;BMP280;60646;55.802;37.032;2023-07-29T03:11:34;98720.22;;;21.36
67515;BMP280;60646;55.802;37.032;2023-07-29T03:14:00;98730.22;;;21.43
67515;BMP280;60646;55.802;37.032;2023-07-29T03:16:28;98735.03;;;21.44
67515;BMP280;60646;55.802;37.032;2023-07-29T03:18:56;98735.38;;;21.39
67515;BMP280;60646;55.802;37.032;2023-07-29T03:21:23;98727.09;;;21.37
67515;BMP280;60646;55.802;37.032;2023-07-29T03:23:48;98734.06;;;21.40
67515;BMP280;60646;55.802;37.032;2023-07-29T03:26:14;98736.69;;;21.38
67515;BMP280;60646;55.802;37.032;2023-07-29T03:28:41;98730.63;;;21.39
67515;BMP280;60646;55.802;37.032;2023-07-29T03:31:08;98727.81;;;21.37
67515;BMP280;60646;55.802;37.032;2023-07-29T03:33:34;98721.09;;;21.38
67515;BMP280;60646;55.802;37.032;2023-07-29T03:36:01;98728.63;;;21.40
67515;BMP280;60646;55.802;37.032;2023-07-29T03:38:27;98730.22;;;21.43
67515;BMP280;60646;55.802;37.032;2023-07-29T03:40:53;98714.78;;;21.36
67515;BMP280;60646;55.802;37.032;2023-07-29T03:43:19;98714.78;;;21.36
67515;BMP280;60646;55.802;37.032;2023-07-29T03:45:45;98706.63;;;21.36
67515;BMP280;60646;55.802;37.032;2023-07-29T03:48:12;98710.06;;;21.36
67515;BMP280;60646;55.802;37.032;2023-07-29T03:50:38;98709.59;;;21.40
67515;BMP280;60646;55.802;37.032;2023-07-29T03:53:05;98700.88;;;21.41
67515;BMP280;60646;55.802;37.032;2023-07-29T03:55:32;98713.53;;;21.48
67515;BMP280;60646;55.802;37.032;2023-07-29T03:57:59;98705.13;;;21.44
67515;BMP280;60646;55.802;37.032;2023-07-29T04:00:26;98707.66;;;21.52
67515;BMP280;60646;55.802;37.032;2023-07-29T04:02:52;98683.88;;;21.41
67515;BMP280;60646;55.802;37.032;2023-07-29T04:05:19;98688.66;;;21.52
67515;BMP280;60646;55.802;37.032;2023-07-29T04:07:45;98678.94;;;21.49
67515;BMP280;60646;55.802;37.032;2023-07-29T04:10:11;98679.28;;;21.43
67515;BMP280;60646;55.802;37.032;2023-07-29T04:12:38;98693.81;;;21.48
67515;BMP280;60646;55.802;37.032;2023-07-29T04:15:05;98692.28;;;21.45
67515;BMP280;60646;55.802;37.032;2023-07-29T04:17:32;98692.44;;;21.47
67515;BMP280;60646;55.802;37.032;2023-07-29T04:19:58;98694.72;;;21.41
67515;BMP280;60646;55.802;37.032;2023-07-29T04:22:30;98694.28;;;21.44
67515;BMP280;60646;55.802;37.032;2023-07-29T04:24:57;98695.00;;;21.45
67515;BMP280;60646;55.802;37.032;2023-07-29T04:27:22;98693.81;;;21.48
67515;BMP280;60646;55.802;37.032;2023-07-29T04:29:51;98686.59;;;21.41
67515;BMP280;60646;55.802;37.032;2023-07-29T04:32:17;98690.84;;;21.44
67515;BMP280;60646;55.802;37.032;2023-07-29T04:34:43;98679.63;;;21.38
67515;BMP280;60646;55.802;37.032;2023-07-29T04:37:10;98674.19;;;21.38
67515;BMP280;60646;55.802;37.032;2023-07-29T04:39:36;98697.13;;;21.46
67515;BMP280;60646;55.802;37.032;2023-07-29T04:42:02;98690.28;;;21.45
67515;BMP280;60646;55.802;37.032;2023-07-29T04:44:28;98691.00;;;21.46
67515;BMP280;60646;55.802;37.032;2023-07-29T04:46:54;98698.38;;;21.55
67515;BMP280;60646;55.802;37.032;2023-07-29T04:49:20;98681.56;;;21.47
67515;BMP280;60646;55.802;37.032;2023-07-29T04:51:47;98692.34;;;21.56
67515;BMP280;60646;55.802;37.032;2023-07-29T04:54:13;98680.63;;;21.54
67515;BMP280;60646;55.802;37.032;2023-07-29T04:56:39;98690.59;;;21.61
67515;BMP280;60646;55.802;37.032;2023-07-29T04:59:05;98696.03;;;21.61
67515;BMP280;60646;55.802;37.032;2023-07-29T05:01:34;98692.00;;;21.62
67515;BMP280;60646;55.802;37.032;2023-07-29T05:04:00;98692.13;;;21.64
67515;BMP280;60646;55.802;37.032;2023-07-29T05:06:29;98678.78;;;21.68
67515;BMP280;60646;55.802;37.032;2023-07-29T05:08:57;98680.56;;;21.75
67515;BMP280;60646;55.802;37.032;2023-07-29T05:11:25;98674.88;;;21.71
67515;BMP280;60646;55.802;37.032;2023-07-29T05:13:51;98683.97;;;21.75
67515;BMP280;60646;55.802;37.032;2023-07-29T05:16:17;98674.28;;;21.72
67515;BMP280;60646;55.802;37.032;2023-07-29T05:18:44;98679.41;;;21.78
67515;BMP280;60646;55.802;37.032;2023-07-29T05:21:10;98683.78;;;21.83
67515;BMP280;60646;55.802;37.032;2023-07-29T05:23:40;98674.06;;;21.80
67515;BMP280;60646;55.802;37.032;2023-07-29T05:26:05;98682.47;;;21.84
67515;BMP280;60646;55.802;37.032;2023-07-29T05:28:31;98684.03;;;21.87
67515;BMP280;60646;55.802;37.032;2023-07-29T05:31:00;98666.31;;;21.86
67515;BMP280;60646;55.802;37.032;2023-07-29T05:33:26;98684.16;;;21.89
67515;BMP280;60646;55.802;37.032;2023-07-29T05:35:52;98676.00;;;21.89
67515;BMP280;60646;55.802;37.032;2023-07-29T05:38:18;98684.53;;;21.95
67515;BMP280;60646;55.802;37.032;2023-07-29T05:41:02;98681.94;;;21.97
67515;BMP280;60646;55.802;37.032;2023-07-29T05:43:28;98683.94;;;21.97
67515;BMP280;60646;55.802;37.032;2023-07-29T05:45:54;98685.97;;;21.96
67515;BMP280;60646;55.802;37.032;2023-07-29T05:48:21;98696.13;;;22.07
67515;BMP280;60646;55.802;37.032;2023-07-29T05:50:47;98688.44;;;22.04
67515;BMP280;60646;55.802;37.032;2023-07-29T05:53:31;98691.88;;;22.04
67515;BMP280;60646;55.802;37.032;2023-07-29T05:55:57;98683.59;;;22.02
67515;BMP280;60646;55.802;37.032;2023-07-29T05:58:23;98693.41;;;22.07
67515;BMP280;60646;55.802;37.032;2023-07-29T06:00:49;98706.81;;;22.15
67515;BMP280;60646;55.802;37.032;2023-07-29T06:03:15;98695.31;;;22.16
67515;BMP280;60646;55.802;37.032;2023-07-29T06:05:41;98689.28;;;22.18
67515;BMP280;60646;55.802;37.032;2023-07-29T06:08:08;98691.91;;;22.27
67515;BMP280;60646;55.802;37.032;2023-07-29T06:10:34;98694.50;;;22.25
67515;BMP280;60646;55.802;37.032;2023-07-29T06:13:02;98697.59;;;22.31
67515;BMP280;60646;55.802;37.032;2023-07-29T06:15:30;98692.97;;;22.34
67515;BMP280;60646;55.802;37.032;2023-07-29T06:17:56;98688.13;;;22.44
67515;BMP280;60646;55.802;37.032;2023-07-29T06:20:22;98688.84;;;22.44
67515;BMP280;60646;55.802;37.032;2023-07-29T06:23:06;98684.94;;;22.47
67515;BMP280;60646;55.802;37.032;2023-07-29T06:25:33;98691.31;;;22.52
67515;BMP280;60646;55.802;37.032;2023-07-29T06:27:59;98693.59;;;22.55
67515;BMP280;60646;55.802;37.032;2023-07-29T06:30:25;98690.41;;;22.59
67515;BMP280;60646;55.802;37.032;2023-07-29T06:32:51;98690.63;;;22.63
67515;BMP280;60646;55.802;37.032;2023-07-29T06:35:17;98698.31;;;22.66
67515;BMP280;60646;55.802;37.032;2023-07-29T06:37:42;98694.50;;;22.71
67515;BMP280;60646;55.802;37.032;2023-07-29T06:40:08;98693.06;;;22.70
67515;BMP280;60646;55.802;37.032;2023-07-29T06:42:34;98697.16;;;22.69
67515;BMP280;60646;55.802;37.032;2023-07-29T06:45:00;98698.75;;;22.74
67515;BMP280;60646;55.802;37.032;2023-07-29T06:47:26;98710.03;;;22.81
67515;BMP280;60646;55.802;37.032;2023-07-29T06:50:17;98724.56;;;22.97
67515;BMP280;60646;55.802;37.032;2023-07-29T06:52:43;98717.00;;;22.84
67515;BMP280;60646;55.802;37.032;2023-07-29T06:55:09;98738.78;;;22.95
67515;BMP280;60646;55.802;37.032;2023-07-29T06:57:34;98743.03;;;22.98
67515;BMP280;60646;55.802;37.032;2023-07-29T07:00:01;98739.50;;;22.96
67515;BMP280;60646;55.802;37.032;2023-07-29T07:02:28;98739.25;;;23.03
67515;BMP280;60646;55.802;37.032;2023-07-29T07:04:54;98732.38;;;23.02
67515;BMP280;60646;55.802;37.032;2023-07-29T07:07:20;98745.84;;;23.12
67515;BMP280;60646;55.802;37.032;2023-07-29T07:09:45;98732.59;;;23.06
67515;BMP280;60646;55.802;37.032;2023-07-29T07:12:11;98744.06;;;23.16
67515;BMP280;60646;55.802;37.032;2023-07-29T07:14:46;98753.53;;;23.27
67515;BMP280;60646;55.802;37.032;2023-07-29T07:17:12;98752.00;;;23.24
67515;BMP280;60646;55.802;37.032;2023-07-29T07:19:37;98751.03;;;23.31
67515;BMP280;60646;55.802;37.032;2023-07-29T07:22:03;98743.94;;;23.26
67515;BMP280;60646;55.802;37.032;2023-07-29T07:24:29;98752.47;;;23.32
67515;BMP280;60646;55.802;37.032;2023-07-29T07:26:55;98748.41;;;23.33
67515;BMP280;60646;55.802;37.032;2023-07-29T07:29:21;98754.78;;;23.37
67515;BMP280;60646;55.802;37.032;2023-07-29T07:31:51;98751.47;;;23.39
67515;BMP280;60646;55.802;37.032;2023-07-29T07:34:20;98753.00;;;23.42
67515;BMP280;60646;55.802;37.032;2023-07-29T07:36:46;98762.13;;;23.46
67515;BMP280;60646;55.802;37.032;2023-07-29T07:39:12;98762.72;;;23.45
67515;BMP280;60646;55.802;37.032;2023-07-29T07:41:40;98761.03;;;23.51
67515;BMP280;60646;55.802;37.032;2023-07-29T07:44:08;98760.78;;;23.59
67515;BMP280;60646;55.802;37.032;2023-07-29T07:46:34;98760.66;;;23.57
67515;BMP280;60646;55.802;37.032;2023-07-29T07:49:02;98762.50;;;23.66
67515;BMP280;60646;55.802;37.032;2023-07-29T07:51:28;98762.03;;;23.70
67515;BMP280;60646;55.802;37.032;2023-07-29T07:53:59;98754.56;;;23.70
67515;BMP280;60646;55.802;37.032;2023-07-29T07:56:26;98745.06;;;23.71
67515;BMP280;60646;55.802;37.032;2023-07-29T07:58:52;98749.47;;;23.76
67515;BMP280;60646;55.802;37.032;2023-07-29T08:01:21;98740.28;;;23.83
67515;BMP280;60646;55.802;37.032;2023-07-29T08:03:49;98707.44;;;23.56
67515;BMP280;60646;55.802;37.032;2023-07-29T08:06:15;98710.28;;;23.58
67515;BMP280;60646;55.802;37.032;2023-07-29T08:08:42;98707.06;;;23.62
67515;BMP280;60646;55.802;37.032;2023-07-29T08:11:08;98711.31;;;23.65
67515;BMP280;60646;55.802;37.032;2023-07-29T08:13:34;98730.19;;;23.86
67515;BMP280;60646;55.802;37.032;2023-07-29T08:16:00;98735.34;;;23.93
67515;BMP280;60646;55.802;37.032;2023-07-29T08:18:26;98748.09;;;24.02
67515;BMP280;60646;55.802;37.032;2023-07-29T08:20:56;98740.28;;;24.08
67515;BMP280;60646;55.802;37.032;2023-07-29T08:23:26;98752.59;;;24.09
67515;BMP280;60646;55.802;37.032;2023-07-29T08:25:56;98743.69;;;24.09
67515;BMP280;60646;55.802;37.032;2023-07-29T08:28:32;98737.81;;;24.14
67515;BMP280;60646;55.802;37.032;2023-07-29T08:30:58;98736.22;;;24.09
67515;BMP280;60646;55.802;37.032;2023-07-29T08:33:24;98746.34;;;24.20
67515;BMP280;60646;55.802;37.032;2023-07-29T08:35:50;98743.53;;;24.18
67515;BMP280;60646;55.802;37.032;2023-07-29T08:38:19;98743.81;;;24.24
67515;BMP280;60646;55.802;37.032;2023-07-29T08:40:52;98737.16;;;24.27
67515;BMP280;60646;55.802;37.032;2023-07-29T08:43:25;98728.97;;;24.27
67515;BMP280;60646;55.802;37.032;2023-07-29T08:45:54;98723.53;;;24.27
67515;BMP280;60646;55.802;37.032;2023-07-29T08:48:29;98733.63;;;24.38
67515;BMP280;60646;55.802;37.032;2023-07-29T08:51:01;98726.25;;;24.41
67515;BMP280;60646;55.802;37.032;2023-07-29T08:53:32;98718.06;;;24.41
67515;BMP280;60646;55.802;37.032;2023-07-29T08:55:59;98695.91;;;24.35
67515;BMP280;60646;55.802;37.032;2023-07-29T08:58:25;98719.06;;;24.47
67515;BMP280;60646;55.802;37.032;2023-07-29T09:00:53;98702.59;;;24.45
67515;BMP280;60646;55.802;37.032;2023-07-29T09:03:19;98726.56;;;24.61
67515;BMP280;60646;55.802;37.032;2023-07-29T09:05:46;98715.94;;;24.67
67515;BMP280;60646;55.802;37.032;2023-07-29T09:08:14;98722.84;;;24.68
67515;BMP280;60646;55.802;37.032;2023-07-29T09:10:40;98720.28;;;24.72
67515;BMP280;60646;55.802;37.032;2023-07-29T09:13:07;98711.91;;;24.68
67515;BMP280;60646;55.802;37.032;2023-07-29T09:15:35;98730.19;;;24.79
67515;BMP280;60646;55.802;37.032;2023-07-29T09:18:10;98715.75;;;24.76
67515;BMP280;60646;55.802;37.032;2023-07-29T09:20:37;98727.66;;;24.83
67515;BMP280;60646;55.802;37.032;2023-07-29T09:23:08;98733.41;;;24.89
67515;BMP280;60646;55.802;37.032;2023-07-29T09:25:42;98739.09;;;24.93
67515;BMP280;60646;55.802;37.032;2023-07-29T09:28:14;98735.44;;;25.02
67515;BMP280;60646;55.802;37.032;2023-07-29T09:30:44;98740.41;;;25.05
67515;BMP280;60646;55.802;37.032;2023-07-29T09:33:17;98730.16;;;25.06
67515;BMP280;60646;55.802;37.032;2023-07-29T09:35:46;98734.44;;;25.09
67515;BMP280;60646;55.802;37.032;2023-07-29T09:38:14;98732.34;;;25.23
67515;BMP280;60646;55.802;37.032;2023-07-29T09:40:41;98722.44;;;25.16
67515;BMP280;60646;55.802;37.032;2023-07-29T09:43:09;98731.84;;;25.26
67515;BMP280;60646;55.802;37.032;2023-07-29T09:45:37;98719.31;;;25.21
67515;BMP280;60646;55.802;37.032;2023-07-29T09:48:04;98731.22;;;25.28
67515;BMP280;60646;55.802;37.032;2023-07-29T09:50:34;98731.03;;;25.24
67515;BMP280;60646;55.802;37.032;2023-07-29T09:53:03;98736.06;;;25.29
67515;BMP280;60646;55.802;37.032;2023-07-29T09:55:32;98742.25;;;25.30
67515;BMP280;60646;55.802;37.032;2023-07-29T09:58:02;98728.09;;;25.20
67515;BMP280;60646;55.802;37.032;2023-07-29T10:00:32;98730.97;;;25.22
67515;BMP280;60646;55.802;37.032;2023-07-29T10:02:59;98737.41;;;25.28
67515;BMP280;60646;55.802;37.032;2023-07-29T10:05:26;98738.03;;;25.27
67515;BMP280;60646;55.802;37.032;2023-07-29T10:07:54;98746.41;;;25.31
67515;BMP280;60646;55.802;37.032;2023-07-29T10:10:20;98749.16;;;25.31
67515;BMP280;60646;55.802;37.032;2023-07-29T10:12:47;98745.34;;;25.22
67515;BMP280;60646;55.802;37.032;2023-07-29T10:15:13;98754.44;;;25.27
67515;BMP280;60646;55.802;37.032;2023-07-29T10:17:40;98751.59;;;25.25
67515;BMP280;60646;55.802;37.032;2023-07-29T10:20:08;98747.34;;;25.22
67515;BMP280;60646;55.802;37.032;2023-07-29T10:22:41;98755.13;;;25.27
67515;BMP280;60646;55.802;37.032;2023-07-29T10:25:16;98730.97;;;25.22
67515;BMP280;60646;55.802;37.032;2023-07-29T10:27:49;98745.09;;;25.32
67515;BMP280;60646;55.802;37.032;2023-07-29T10:30:15;98732.56;;;25.27
67515;BMP280;60646;55.802;37.032;2023-07-29T10:32:42;98719.38;;;25.23
67515;BMP280;60646;55.802;37.032;2023-07-29T10:35:12;98720.38;;;25.30
67515;BMP280;60646;55.802;37.032;2023-07-29T10:37:39;98724.53;;;25.31
67515;BMP280;60646;55.802;37.032;2023-07-29T10:40:07;98721.81;;;25.31
67515;BMP280;60646;55.802;37.032;2023-07-29T10:42:33;98727.34;;;25.33
67515;BMP280;60646;55.802;37.032;2023-07-29T10:45:17;98720.47;;;25.32
67515;BMP280;60646;55.802;37.032;2023-07-29T10:47:43;98722.63;;;25.20
67515;BMP280;60646;55.802;37.032;2023-07-29T10:50:17;98740.94;;;25.31
67515;BMP280;60646;55.802;37.032;2023-07-29T10:52:50;98744.81;;;25.26
67515;BMP280;60646;55.802;37.032;2023-07-29T10:55:32;98742.25;;;25.30
67515;BMP280;60646;55.802;37.032;2023-07-29T10:58:15;98738.03;;;25.27
67515;BMP280;60646;55.802;37.032;2023-07-29T11:00:45;98737.44;;;25.15
67515;BMP280;60646;55.802;37.032;2023-07-29T11:03:12;98750.16;;;25.24
67515;BMP280;60646;55.802;37.032;2023-07-29T11:05:43;98740.03;;;25.26
67515;BMP280;60646;55.802;37.032;2023-07-29T11:08:20;98733.75;;;25.24
67515;BMP280;60646;55.802;37.032;2023-07-29T11:10:59;98746.50;;;25.33
67515;BMP280;60646;55.802;37.032;2023-07-29T11:13:27;98747.34;;;25.22
67515;BMP280;60646;55.802;37.032;2023-07-29T11:15:54;98766.06;;;25.27
67515;BMP280;60646;55.802;37.032;2023-07-29T11:18:21;98766.06;;;25.27
67515;BMP280;60646;55.802;37.032;2023-07-29T11:20:46;98755.13;;;25.27
67515;BMP280;60646;55.802;37.032;2023-07-29T11:23:13;98746.13;;;25.25
67515;BMP280;60646;55.802;37.032;2023-07-29T11:25:39;98747.94;;;25.20
67515;BMP280;60646;55.802;37.032;2023-07-29T11:28:05;98747.34;;;25.22
67515;BMP280;60646;55.802;37.032;2023-07-29T11:30:31;98758.66;;;25.30
67515;BMP280;60646;55.802;37.032;2023-07-29T11:32:59;98757.34;;;25.31
67515;BMP280;60646;55.802;37.032;2023-07-29T11:35:25;98745.94;;;25.21
67515;BMP280;60646;55.802;37.032;2023-07-29T11:37:53;98760.09;;;25.31
67515;BMP280;60646;55.802;37.032;2023-07-29T11:40:23;98762.63;;;25.27
67515;BMP280;60646;55.802;37.032;2023-07-29T11:42:52;98771.81;;;25.33
67515;BMP280;60646;55.802;37.032;2023-07-29T11:45:19;98762.63;;;25.27
67515;BMP280;60646;55.802;37.032;2023-07-29T11:47:45;98766.28;;;25.31
67515;BMP280;60646;55.802;37.032;2023-07-29T11:50:12;98761.72;;;25.36
67515;BMP280;60646;55.802;37.032;2023-07-29T11:52:43;98740.75;;;25.27
67515;BMP280;60646;55.802;37.032;2023-07-29T11:55:09;98753.19;;;25.30
67515;BMP280;60646;55.802;37.032;2023-07-29T11:57:37;98768.84;;;25.43
67515;BMP280;60646;55.802;37.032;2023-07-29T12:00:04;98768.56;;;25.37
67515;BMP280;60646;55.802;37.032;2023-07-29T12:02:40;98761.97;;;25.42
67515;BMP280;60646;55.802;37.032;2023-07-29T12:05:08;98780.50;;;25.44
67515;BMP280;60646;55.802;37.032;2023-07-29T12:07:35;98775.47;;;25.38
67515;BMP280;60646;55.802;37.032;2023-07-29T12:10:04;98773.19;;;25.48
67515;BMP280;60646;55.802;37.032;2023-07-29T12:12:30;98771.59;;;25.43
67515;BMP280;60646;55.802;37.032;2023-07-29T12:14:56;98777.19;;;25.45
67515;BMP280;60646;55.802;37.032;2023-07-29T12:17:22;98769.66;;;25.46
67515;BMP280;60646;55.802;37.032;2023-07-29T12:19:48;98769.16;;;25.49
67515;BMP280;60646;55.802;37.032;2023-07-29T12:22:18;98766.59;;;25.53
67515;BMP280;60646;55.802;37.032;2023-07-29T12:24:44;98761.03;;;25.51
67515;BMP280;60646;55.802;37.032;2023-07-29T12:27:12;98757.19;;;25.56
67515;BMP280;60646;55.802;37.032;2023-07-29T12:29:42;98763.19;;;25.68
67515;BMP280;60646;55.802;37.032;2023-07-29T12:32:10;98757.03;;;25.68
67515;BMP280;60646;55.802;37.032;2023-07-29T12:34:37;98755.06;;;25.70
67515;BMP280;60646;55.802;37.032;2023-07-29T12:37:06;98742.53;;;25.65
67515;BMP280;60646;55.802;37.032;2023-07-29T12:39:35;98760.53;;;25.70
67515;BMP280;60646;55.802;37.032;2023-07-29T12:42:02;98755.25;;;25.74
67515;BMP280;60646;55.802;37.032;2023-07-29T12:44:33;98745.56;;;25.71
67515;BMP280;60646;55.802;37.032;2023-07-29T12:47:03;98756.75;;;25.77
67515;BMP280;60646;55.802;37.032;2023-07-29T12:49:30;98763.56;;;25.76
67515;BMP280;60646;55.802;37.032;2023-07-29T12:51:57;98761.44;;;25.75
67515;BMP280;60646;55.802;37.032;2023-07-29T12:54:23;98758.59;;;25.73
67515;BMP280;60646;55.802;37.032;2023-07-29T12:56:49;98756.50;;;25.71
67515;BMP280;60646;55.802;37.032;2023-07-29T12:59:16;98753.94;;;25.75
67515;BMP280;60646;55.802;37.032;2023-07-29T13:01:41;98755.97;;;25.75
67515;BMP280;60646;55.802;37.032;2023-07-29T13:04:08;98752.63;;;25.76
67515;BMP280;60646;55.802;37.032;2023-07-29T13:06:34;98750.59;;;25.77
67515;BMP280;60646;55.802;37.032;2023-07-29T13:09:00;98758.09;;;25.76
67515;BMP280;60646;55.802;37.032;2023-07-29T13:11:25;98750.78;;;25.81
67515;BMP280;60646;55.802;37.032;2023-07-29T13:13:51;98756.84;;;25.79
67515;BMP280;60646;55.802;37.032;2023-07-29T13:16:17;98755.78;;;25.86
67515;BMP280;60646;55.802;37.032;2023-07-29T13:18:44;98744.69;;;25.82
67515;BMP280;60646;55.802;37.032;2023-07-29T13:21:10;98755.97;;;25.90
67515;BMP280;60646;55.802;37.032;2023-07-29T13:23:36;98743.47;;;25.85
67515;BMP280;60646;55.802;37.032;2023-07-29T13:26:02;98741.06;;;25.93
67515;BMP280;60646;55.802;37.032;2023-07-29T13:28:28;98725.19;;;25.90
67515;BMP280;60646;55.802;37.032;2023-07-29T13:30:54;98734.53;;;26.00
67515;BMP280;60646;55.802;37.032;2023-07-29T13:33:20;98740.09;;;26.02
67515;BMP280;60646;55.802;37.032;2023-07-29T13:35:46;98729.72;;;25.99
67515;BMP280;60646;55.802;37.032;2023-07-29T13:38:12;98729.25;;;26.04
67515;BMP280;60646;55.802;37.032;2023-07-29T13:40:38;98725.19;;;26.05
67515;BMP280;60646;55.802;37.032;2023-07-29T13:43:03;98732.34;;;26.12
67515;BMP280;60646;55.802;37.032;2023-07-29T13:45:35;98717.25;;;26.11
67515;BMP280;60646;55.802;37.032;2023-07-29T13:48:00;98720.84;;;26.16
67515;BMP280;60646;55.802;37.032;2023-07-29T13:50:26;98720.22;;;26.17
67515;BMP280;60646;55.802;37.032;2023-07-29T13:52:52;98718.75;;;26.14
67515;BMP280;60646;55.802;37.032;2023-07-29T13:55:18;98733.75;;;26.29
67515;BMP280;60646;55.802;37.032;2023-07-29T13:57:44;98721.03;;;26.20
67515;BMP280;60646;55.802;37.032;2023-07-29T14:00:10;98715.19;;;26.27
67515;BMP280;60646;55.802;37.032;2023-07-29T14:02:41;98713.25;;;26.30